createdAt,value
2018-02-16T00:02:03.473Z,53.00
2018-02-16T00:04:31.089Z,44.37
2018-02-16T00:06:58.737Z,47.40
2018-02-16T00:09:27.162Z,46.57
2018-02-16T00:11:54.844Z,44.05
2018-02-16T00:14:22.508Z,49.80
2018-02-16T00:16:50.126Z,46.00
2018-02-16T00:19:18.488Z,49.53
2018-02-16T00:21:46.148Z,44.23
2018-02-16T00:24:14.374Z,49.13
2018-02-16T00:26:42.468Z,50.70
2018-02-16T00:29:10.121Z,42.60
2018-02-16T00:31:37.738Z,40.30
2018-02-16T00:34:05.385Z,44.07
2018-02-16T00:36:33.000Z,43.63
2018-02-16T00:39:01.424Z,39.53
2018-02-16T00:41:29.080Z,35.43
2018-02-16T00:43:56.735Z,52.20
2018-02-16T00:46:24.349Z,46.13
2018-02-16T00:48:52.769Z,33.33
2018-02-16T00:51:20.420Z,42.13
2018-02-16T00:53:48.341Z,44.25
2018-02-16T00:56:16.105Z,38.72
2018-02-16T00:58:43.869Z,36.73
2018-02-16T01:01:11.522Z,37.15
2018-02-16T01:03:39.176Z,36.00
2018-02-16T01:06:06.839Z,33.20
2018-02-16T01:08:34.456Z,42.73
2018-02-16T01:11:02.488Z,35.75
2018-02-16T01:13:30.868Z,35.85
2018-02-16T01:15:58.526Z,27.63
2018-02-16T01:18:26.176Z,36.67
2018-02-16T01:20:53.841Z,26.40
2018-02-16T01:23:21.498Z,42.27
2018-02-16T01:25:49.262Z,43.90
2018-02-16T01:28:16.916Z,24.75
2018-02-16T01:30:44.537Z,29.63
2018-02-16T01:33:12.189Z,27.08
2018-02-16T01:35:39.816Z,25.45
2018-02-16T01:38:07.825Z,22.23
2018-02-16T01:40:35.614Z,25.35
2018-02-16T01:43:03.274Z,21.60
2018-02-16T01:45:31.477Z,20.42
2018-02-16T01:47:59.370Z,18.60
2018-02-16T01:50:27.780Z,35.70
2018-02-16T01:52:55.439Z,30.70
2018-02-16T01:55:23.333Z,29.23
2018-02-16T01:57:51.291Z,23.95
2018-02-16T02:00:20.153Z,26.40
2018-02-16T02:02:47.801Z,30.70
2018-02-16T02:05:15.470Z,29.50
2018-02-16T02:07:43.093Z,29.47
2018-02-16T02:10:11.716Z,24.08
2018-02-16T02:12:39.336Z,24.80
2018-02-16T02:15:06.961Z,31.42
2018-02-16T02:17:34.831Z,33.53
2018-02-16T02:20:02.445Z,28.30
2018-02-16T02:22:30.102Z,21.73
2018-02-16T02:24:57.724Z,24.63
2018-02-16T02:27:25.378Z,29.67
2018-02-16T02:29:53.037Z,27.25
2018-02-16T02:32:20.657Z,22.80
2018-02-16T02:34:48.309Z,31.08
2018-02-16T02:37:15.966Z,28.90
2018-02-16T02:39:43.677Z,28.90
2018-02-16T02:42:11.369Z,25.25
2018-02-16T02:44:38.986Z,37.80
2018-02-16T02:47:06.645Z,30.77
2018-02-16T02:49:34.421Z,30.35
2018-02-16T02:52:02.075Z,27.27
2018-02-16T02:54:29.733Z,26.87
2018-02-16T02:56:57.395Z,34.95
2018-02-16T02:59:25.169Z,29.90
2018-02-16T03:01:52.831Z,31.23
2018-02-16T03:04:20.482Z,34.63
2018-02-16T03:06:48.236Z,22.00
2018-02-16T03:09:15.891Z,32.33
2018-02-16T03:11:43.505Z,31.40
2018-02-16T03:14:11.432Z,30.03
2018-02-16T03:16:39.082Z,39.87
2018-02-16T03:19:06.930Z,32.90
2018-02-16T03:21:35.270Z,31.00
2018-02-16T03:24:03.097Z,26.37
2018-02-16T03:26:30.761Z,25.03
2018-02-16T03:28:58.380Z,24.30
2018-02-16T03:31:25.997Z,34.50
2018-02-16T03:33:55.451Z,33.17
2018-02-16T03:36:23.104Z,29.92
2018-02-16T03:38:50.717Z,29.10
2018-02-16T03:41:19.143Z,31.80
2018-02-16T03:43:46.809Z,31.48
2018-02-16T03:46:14.814Z,26.05
2018-02-16T03:48:43.260Z,28.27
2018-02-16T03:51:10.874Z,27.17
2018-02-16T03:53:39.221Z,36.90
2018-02-16T03:56:06.837Z,22.40
2018-02-16T03:58:35.244Z,31.20
2018-02-16T04:01:02.873Z,36.07
2018-02-16T04:03:30.518Z,29.80
2018-02-16T04:05:58.896Z,35.03
2018-02-16T04:08:27.309Z,26.90
2018-02-16T04:10:54.933Z,34.17
2018-02-16T04:13:23.348Z,33.00
2018-02-16T04:15:50.965Z,29.30
2018-02-16T04:18:18.616Z,36.67
2018-02-16T04:20:46.245Z,30.83
2018-02-16T04:23:14.696Z,27.97
2018-02-16T04:25:42.312Z,29.90
2018-02-16T04:28:10.339Z,30.53
2018-02-16T04:30:37.963Z,33.20
2018-02-16T04:33:05.577Z,26.10
2018-02-16T04:35:33.512Z,25.50
2018-02-16T04:38:01.737Z,21.17
2018-02-16T04:40:29.361Z,24.37
2018-02-16T04:42:57.027Z,29.33
2018-02-16T04:45:25.324Z,25.48
2018-02-16T04:47:53.266Z,26.33
2018-02-16T04:50:20.925Z,25.83
2018-02-16T04:52:48.733Z,28.10
2018-02-16T04:55:17.169Z,22.30
2018-02-16T04:57:44.832Z,38.45
2018-02-16T05:00:13.193Z,36.03
2018-02-16T05:02:40.845Z,28.57
2018-02-16T05:05:08.460Z,27.23
2018-02-16T05:07:36.126Z,29.57
2018-02-16T05:10:04.565Z,32.30
2018-02-16T05:12:32.220Z,35.30
2018-02-16T05:15:01.260Z,30.10
2018-02-16T05:17:29.229Z,30.03
2018-02-16T05:19:57.165Z,27.73
2018-02-16T05:22:24.817Z,33.20
2018-02-16T05:24:52.461Z,28.10
2018-02-16T05:27:21.097Z,33.00
2018-02-16T05:29:49.357Z,28.10
2018-02-16T05:32:17.516Z,37.93
2018-02-16T05:34:45.470Z,30.42
2018-02-16T05:37:13.514Z,27.55
2018-02-16T05:39:41.189Z,25.80
2018-02-16T05:42:09.355Z,29.13
2018-02-16T05:44:36.997Z,30.15
2018-02-16T05:47:04.796Z,29.90
2018-02-16T05:49:33.493Z,30.42
2018-02-16T05:52:01.325Z,24.67
2018-02-16T05:54:29.504Z,28.10
2018-02-16T05:56:57.176Z,31.50
2018-02-16T05:59:25.074Z,31.20
2018-02-16T06:01:52.750Z,35.05
2018-02-16T06:04:20.469Z,31.73
2018-02-16T06:06:48.120Z,31.67
2018-02-16T06:09:15.889Z,29.77
2018-02-16T06:11:43.729Z,24.30
2018-02-16T06:14:11.591Z,20.63
2018-02-16T06:16:39.485Z,32.53
2018-02-16T06:19:07.365Z,26.40
2018-02-16T06:21:35.268Z,28.23
2018-02-16T06:24:04.085Z,31.63
2018-02-16T06:26:31.756Z,31.65
2018-02-16T06:28:59.913Z,36.40
2018-02-16T06:31:27.621Z,28.80
2018-02-16T06:33:55.638Z,24.70
2018-02-16T06:36:23.276Z,29.97
2018-02-16T06:38:52.165Z,26.30
2018-02-16T06:41:22.058Z,26.33
2018-02-16T06:43:49.697Z,31.37
2018-02-16T06:46:17.869Z,25.63
2018-02-16T06:48:45.950Z,25.80
2018-02-16T06:51:14.108Z,24.57
2018-02-16T06:53:41.737Z,26.43
2018-02-16T06:56:09.936Z,28.43
2018-02-16T06:58:37.556Z,33.93
2018-02-16T07:01:06.392Z,33.90
2018-02-16T07:03:34.386Z,41.47
2018-02-16T07:06:02.149Z,34.13
2018-02-16T07:08:29.815Z,33.77
2018-02-16T07:10:57.441Z,23.38
2018-02-16T07:13:25.910Z,27.02
2018-02-16T07:15:53.546Z,26.23
2018-02-16T07:18:21.202Z,22.27
2018-02-16T07:20:48.840Z,23.17
2018-02-16T07:23:17.189Z,24.90
2018-02-16T07:25:44.820Z,20.17
2018-02-16T07:28:12.695Z,25.50
2018-02-16T07:30:40.316Z,26.40
2018-02-16T07:33:07.981Z,25.27
2018-02-16T07:35:35.620Z,29.98
2018-02-16T07:38:04.054Z,33.05
2018-02-16T07:40:31.717Z,26.25
2018-02-16T07:42:59.585Z,26.67
2018-02-16T07:45:27.342Z,20.98
2018-02-16T07:47:55.025Z,23.80
2018-02-16T07:50:23.746Z,18.70
2018-02-16T07:52:52.174Z,23.67
2018-02-16T07:55:19.855Z,22.40
2018-02-16T07:57:47.755Z,27.70
2018-02-16T08:00:15.495Z,21.43
2018-02-16T08:02:43.902Z,24.42
2018-02-16T08:05:11.740Z,37.13
2018-02-16T08:07:39.403Z,21.70
2018-02-16T08:10:07.604Z,26.27
2018-02-16T08:12:35.241Z,25.50
2018-02-16T08:15:02.905Z,19.07
2018-02-16T08:17:31.360Z,24.73
2018-02-16T08:19:59.402Z,29.02
2018-02-16T08:22:27.632Z,27.80
2018-02-16T08:24:55.546Z,26.05
2018-02-16T08:27:23.236Z,22.33
2018-02-16T08:29:51.785Z,23.77
2018-02-16T08:32:19.495Z,27.37
2018-02-16T08:34:47.124Z,22.77
2018-02-16T08:37:14.969Z,32.70
2018-02-16T08:39:42.641Z,23.93
2018-02-16T08:42:10.264Z,26.95
2018-02-16T08:44:37.909Z,19.17
2018-02-16T08:47:05.588Z,26.93
2018-02-16T08:49:33.205Z,26.00
2018-02-16T08:52:01.774Z,22.83
2018-02-16T08:54:29.541Z,28.95
2018-02-16T08:56:57.169Z,23.73
2018-02-16T08:59:24.883Z,23.53
2018-02-16T09:01:52.496Z,22.37
2018-02-16T09:04:20.364Z,28.13
2018-02-16T09:06:48.033Z,20.60
2018-02-16T09:09:16.249Z,23.80
2018-02-16T09:11:43.956Z,27.10
2018-02-16T09:14:11.586Z,18.03
2018-02-16T09:16:39.398Z,22.67
2018-02-16T09:19:07.164Z,24.40
2018-02-16T09:21:34.824Z,17.27
2018-02-16T09:24:03.998Z,18.62
2018-02-16T09:26:31.689Z,18.27
2018-02-16T09:28:59.525Z,20.00
2018-02-16T09:31:27.286Z,21.43
2018-02-16T09:33:54.913Z,20.57
2018-02-16T09:36:23.150Z,20.17
2018-02-16T09:38:56.545Z,30.80
2018-02-16T09:41:24.204Z,22.58
2018-02-16T09:43:51.901Z,20.02
2018-02-16T09:46:20.489Z,19.73
2018-02-16T09:48:48.133Z,23.25
2018-02-16T09:51:15.817Z,27.10
2018-02-16T09:53:43.452Z,18.95
2018-02-16T09:56:14.045Z,22.37
2018-02-16T09:58:41.697Z,20.20
2018-02-16T10:01:09.354Z,16.45
2018-02-16T10:03:37.038Z,19.23
2018-02-16T10:06:04.700Z,18.20
2018-02-16T10:08:33.827Z,26.87
2018-02-16T10:11:01.485Z,19.03
2018-02-16T10:13:29.303Z,16.37
2018-02-16T10:15:58.014Z,20.60
2018-02-16T10:18:26.690Z,15.57
2018-02-16T10:20:54.329Z,13.80
2018-02-16T10:23:22.202Z,20.03
2018-02-16T10:25:49.849Z,22.10
2018-02-16T10:28:17.485Z,23.25
2018-02-16T10:30:45.146Z,24.07
2018-02-16T10:33:12.808Z,24.70
2018-02-16T10:35:40.429Z,19.33
2018-02-16T10:38:09.081Z,18.00
2018-02-16T10:40:36.757Z,18.40
2018-02-16T10:43:04.638Z,15.30
2018-02-16T10:45:33.025Z,18.37
2018-02-16T10:48:01.424Z,26.58
2018-02-16T10:50:29.086Z,13.53
2018-02-16T10:52:57.304Z,13.32
2018-02-16T10:55:24.956Z,18.07
2018-02-16T10:57:52.578Z,15.60
2018-02-16T11:00:26.985Z,13.00
2018-02-16T11:03:00.165Z,15.25
2018-02-16T11:05:33.382Z,15.68
2018-02-16T11:08:01.029Z,21.80
2018-02-16T11:10:28.685Z,15.05
2018-02-16T11:12:56.301Z,18.83
2018-02-16T11:15:24.864Z,16.92
2018-02-16T11:17:52.537Z,18.93
2018-02-16T11:20:20.884Z,14.57
2018-02-16T11:22:48.501Z,16.73
2018-02-16T11:25:17.067Z,20.35
2018-02-16T11:27:45.397Z,7.12
2018-02-16T11:30:13.049Z,12.60
2018-02-16T11:32:40.665Z,19.33
2018-02-16T11:35:09.000Z,16.92
2018-02-16T11:37:36.892Z,14.23
2018-02-16T11:40:04.555Z,19.03
2018-02-16T11:42:32.321Z,14.10
2018-02-16T11:44:59.945Z,16.13
2018-02-16T11:50:03.238Z,22.48
2018-02-16T11:52:31.054Z,14.57
2018-02-16T11:54:59.269Z,12.07
2018-02-16T11:57:27.188Z,24.25
2018-02-16T11:59:54.840Z,16.75
2018-02-16T12:02:22.448Z,16.50
2018-02-16T12:04:50.899Z,19.87
2018-02-16T12:07:18.513Z,16.63
2018-02-16T12:09:46.204Z,17.30
2018-02-16T12:12:13.823Z,16.08
2018-02-16T12:14:41.433Z,13.73
2018-02-16T12:17:09.090Z,14.53
2018-02-16T12:19:36.789Z,14.85
2018-02-16T12:22:05.217Z,5.10
2018-02-16T12:24:32.877Z,13.60
2018-02-16T12:27:00.489Z,23.93
2018-02-16T12:29:28.149Z,15.37
2018-02-16T12:31:56.534Z,13.63
2018-02-16T12:34:24.180Z,13.03
2018-02-16T12:36:52.657Z,16.65
2018-02-16T12:39:21.070Z,11.97
2018-02-16T12:41:48.761Z,13.83
2018-02-16T12:44:16.416Z,13.90
2018-02-16T12:46:44.733Z,18.25
2018-02-16T12:49:13.165Z,15.33
2018-02-16T12:51:40.776Z,20.25
2018-02-16T12:54:08.420Z,16.50
2018-02-16T12:56:36.043Z,15.20
2018-02-16T12:59:03.817Z,21.73
2018-02-16T13:01:31.434Z,12.07
2018-02-16T13:03:59.083Z,14.57
2018-02-16T13:06:27.680Z,13.90
2018-02-16T13:08:55.308Z,13.70
2018-02-16T13:11:41.417Z,15.00
2018-02-16T13:14:09.793Z,6.82
2018-02-16T13:16:38.209Z,13.82
2018-02-16T13:19:05.997Z,11.00
2018-02-16T13:21:34.436Z,13.10
2018-02-16T13:24:02.914Z,13.27
2018-02-16T13:26:30.562Z,17.00
2018-02-16T13:28:58.201Z,9.20
2018-02-16T13:31:26.619Z,13.80
2018-02-16T13:33:54.289Z,17.33
2018-02-16T13:36:21.944Z,17.17
2018-02-16T13:38:49.553Z,9.47
2018-02-16T13:41:17.942Z,11.10
2018-02-16T13:43:46.359Z,15.83
2018-02-16T13:46:14.623Z,9.03
2018-02-16T13:48:42.289Z,10.60
2018-02-16T13:51:09.981Z,12.45
2018-02-16T13:53:38.321Z,13.33
2018-02-16T13:56:06.614Z,11.05
2018-02-16T13:58:34.261Z,14.18
2018-02-16T14:01:01.913Z,16.10
2018-02-16T14:03:29.754Z,9.83
2018-02-16T14:05:57.681Z,7.90
2018-02-16T14:08:25.914Z,12.80
2018-02-16T14:10:53.537Z,19.30
2018-02-16T14:13:21.189Z,10.20
2018-02-16T14:15:48.805Z,14.60
2018-02-16T14:18:16.456Z,12.77
2018-02-16T14:20:44.711Z,11.50
2018-02-16T14:23:12.374Z,11.65
2018-02-16T14:25:40.757Z,17.03
2018-02-16T14:28:08.478Z,10.13
2018-02-16T14:30:36.133Z,19.55
2018-02-16T14:33:03.754Z,14.73
2018-02-16T14:35:31.958Z,12.10
2018-02-16T14:37:59.604Z,12.80
2018-02-16T14:40:27.212Z,10.35
2018-02-16T14:42:54.867Z,13.20
2018-02-16T14:45:22.513Z,12.77
2018-02-16T14:47:50.265Z,14.73
2018-02-16T14:50:17.916Z,10.07
2018-02-16T14:52:45.576Z,13.23
2018-02-16T14:55:13.197Z,13.50
2018-02-16T14:57:40.805Z,10.40
2018-02-16T15:00:08.773Z,12.37
2018-02-16T15:02:36.418Z,9.13
2018-02-16T15:05:04.077Z,9.60
2018-02-16T15:07:32.404Z,5.32
2018-02-16T15:10:00.782Z,12.68
2018-02-16T15:12:29.200Z,21.63
2018-02-16T15:14:56.844Z,9.98
2018-02-16T15:17:24.461Z,16.50
2018-02-16T15:19:52.889Z,16.02
2018-02-16T15:22:20.541Z,15.43
2018-02-16T15:24:48.945Z,14.02
2018-02-16T15:27:16.708Z,13.43
2018-02-16T15:29:44.380Z,14.80
2018-02-16T15:32:12.032Z,10.57
2018-02-16T15:34:39.869Z,13.87
2018-02-16T15:37:07.540Z,15.05
2018-02-16T15:39:35.424Z,24.63
2018-02-16T15:42:03.082Z,11.40
2018-02-16T15:44:30.740Z,9.17
2018-02-16T15:46:59.044Z,8.30
2018-02-16T15:49:26.706Z,12.33
2018-02-16T15:51:54.365Z,9.23
2018-02-16T15:54:22.021Z,9.03
2018-02-16T15:56:49.633Z,14.27
2018-02-16T15:59:17.896Z,13.33
2018-02-16T16:01:45.560Z,11.68
2018-02-16T16:04:13.360Z,16.40
2018-02-16T16:06:41.013Z,19.17
2018-02-16T16:09:10.190Z,13.50
2018-02-16T16:11:38.820Z,10.07
2018-02-16T16:14:06.469Z,12.18
2018-02-16T16:16:34.873Z,9.23
2018-02-16T16:19:04.058Z,11.48
2018-02-16T16:21:31.792Z,16.20
2018-02-16T16:24:05.088Z,9.55
2018-02-16T16:26:36.513Z,14.23
2018-02-16T16:29:08.826Z,11.83
2018-02-16T16:31:36.665Z,13.90
2018-02-16T16:34:09.961Z,15.33
2018-02-16T16:36:37.954Z,11.63
2018-02-16T16:39:10.575Z,12.27
2018-02-16T16:41:39.253Z,15.37
2018-02-16T16:44:11.582Z,19.73
2018-02-16T16:46:43.959Z,12.30
2018-02-16T16:49:12.201Z,15.48
2018-02-16T16:51:40.482Z,13.70
2018-02-16T16:54:08.937Z,17.90
2018-02-16T16:56:36.592Z,10.90
2018-02-16T16:59:04.252Z,9.97
2018-02-16T17:01:32.157Z,10.23
2018-02-16T17:03:59.778Z,13.38
2018-02-16T17:06:28.378Z,12.20
2018-02-16T17:08:56.030Z,10.47
2018-02-16T17:11:23.679Z,10.20
2018-02-16T17:13:51.298Z,12.83
2018-02-16T17:16:19.040Z,13.90
2018-02-16T17:18:46.692Z,12.98
2018-02-16T17:21:14.305Z,15.70
2018-02-16T17:23:42.729Z,19.53
2018-02-16T17:26:14.792Z,18.60
2018-02-16T17:28:47.100Z,16.37
2018-02-16T17:31:19.598Z,11.00
2018-02-16T17:33:51.952Z,13.53
2018-02-16T17:36:22.848Z,10.73
2018-02-16T17:38:54.762Z,13.17
2018-02-16T17:41:22.476Z,20.40
2018-02-16T17:43:50.326Z,13.23
2018-02-16T17:46:20.201Z,12.70
2018-02-16T17:48:47.814Z,17.77
2018-02-16T17:51:15.677Z,17.43
2018-02-16T17:53:43.343Z,12.80
2018-02-16T17:56:11.201Z,17.50
2018-02-16T17:58:39.095Z,17.05
2018-02-16T18:01:06.733Z,11.20
2018-02-16T18:03:34.387Z,14.37
2018-02-16T18:06:02.001Z,6.30
2018-02-16T18:08:29.669Z,24.57
2018-02-16T18:10:57.280Z,28.53
2018-02-16T18:13:24.906Z,13.32
2018-02-16T18:15:52.566Z,13.43
2018-02-16T18:18:20.176Z,13.90
2018-02-16T18:20:48.553Z,17.30
2018-02-16T18:23:16.965Z,16.20
2018-02-16T18:25:45.671Z,23.77
2018-02-16T18:28:13.745Z,15.88
2018-02-16T18:30:41.995Z,14.65
2018-02-16T18:33:09.745Z,12.48
2018-02-16T18:35:38.258Z,16.00
2018-02-16T18:38:06.200Z,13.05
2018-02-16T18:40:34.936Z,22.73
2018-02-16T18:43:02.589Z,14.83
2018-02-16T18:45:30.793Z,12.33
2018-02-16T18:47:59.201Z,13.73
2018-02-16T18:50:26.813Z,11.70
2018-02-16T18:52:54.464Z,17.27
2018-02-16T18:55:22.121Z,13.97
2018-02-16T18:57:49.788Z,10.20
2018-02-16T19:00:18.905Z,11.80
2018-02-16T19:02:47.642Z,13.40
2018-02-16T19:05:15.256Z,20.80
2018-02-16T19:07:42.907Z,11.60
2018-02-16T19:10:12.748Z,15.97
2018-02-16T19:12:40.462Z,12.43
2018-02-16T19:15:08.096Z,18.42
2018-02-16T19:17:35.704Z,14.40
2018-02-16T19:20:04.118Z,12.40
2018-02-16T19:22:31.808Z,13.40
2018-02-16T19:24:59.789Z,23.77
2018-02-16T19:27:27.581Z,16.70
2018-02-16T19:29:57.997Z,13.20
2018-02-16T19:32:25.608Z,21.10
2018-02-16T19:34:53.691Z,13.33
2018-02-16T19:37:21.906Z,16.20
2018-02-16T19:39:49.526Z,16.23
2018-02-16T19:42:17.292Z,16.40
2018-02-16T19:44:44.940Z,14.67
2018-02-16T19:47:12.592Z,19.67
2018-02-16T19:49:40.270Z,7.97
2018-02-16T19:52:09.043Z,19.57
2018-02-16T19:54:36.717Z,13.33
2018-02-16T19:57:04.365Z,14.50
2018-02-16T19:59:31.990Z,18.75
2018-02-16T20:01:59.645Z,16.77
2018-02-16T20:04:27.301Z,11.47
2018-02-16T20:06:54.957Z,9.93
2018-02-16T20:09:23.374Z,17.80
2018-02-16T20:11:51.029Z,11.93
2018-02-16T20:14:18.641Z,25.60
2018-02-16T20:16:46.977Z,14.60
2018-02-16T20:19:14.585Z,15.40
2018-02-16T20:21:42.633Z,17.07
2018-02-16T20:24:11.749Z,12.63
2018-02-16T20:26:40.168Z,11.18
2018-02-16T20:29:11.468Z,18.48
2018-02-16T20:31:40.988Z,17.13
2018-02-16T20:34:08.618Z,16.30
2018-02-16T20:36:36.264Z,16.50
2018-02-16T20:39:03.918Z,11.30
2018-02-16T20:41:35.677Z,12.37
2018-02-16T20:44:03.281Z,16.15
2018-02-16T20:46:30.928Z,18.53
2018-02-16T20:49:00.436Z,17.23
2018-02-16T20:51:28.165Z,18.85
2018-02-16T20:53:56.862Z,11.00
2018-02-16T20:56:31.067Z,13.50
2018-02-16T20:59:01.151Z,19.97
2018-02-16T21:01:29.401Z,21.13
2018-02-16T21:03:57.772Z,15.07
2018-02-16T21:06:26.417Z,16.90
2018-02-16T21:08:54.183Z,9.87
2018-02-16T21:11:21.824Z,11.00
2018-02-16T21:13:49.480Z,13.57
2018-02-16T21:16:17.161Z,19.30
2018-02-16T21:18:44.771Z,12.80
2018-02-16T21:21:12.465Z,23.10
2018-02-16T21:23:40.114Z,14.23
2018-02-16T21:26:08.644Z,13.37
2018-02-16T21:28:36.369Z,12.25
2018-02-16T21:31:04.005Z,14.07
2018-02-16T21:33:31.657Z,14.47
2018-02-16T21:36:03.591Z,14.93
2018-02-16T21:38:35.180Z,12.00
2018-02-16T21:41:04.718Z,19.50
2018-02-16T21:43:34.266Z,13.90
2018-02-16T21:46:05.739Z,13.60
2018-02-16T21:48:38.727Z,29.33
2018-02-16T21:51:10.253Z,15.30
2018-02-16T21:53:41.787Z,12.77
2018-02-16T21:56:11.086Z,11.07
2018-02-16T21:58:43.978Z,17.02
2018-02-16T22:01:17.975Z,14.83
2018-02-16T22:03:47.557Z,17.23
2018-02-16T22:06:15.266Z,18.90
2018-02-16T22:08:42.880Z,10.53
2018-02-16T22:11:11.344Z,13.27
2018-02-16T22:13:39.021Z,15.47
2018-02-16T22:16:06.869Z,17.10
2018-02-16T22:18:34.476Z,20.95
2018-02-16T22:21:03.444Z,11.03
2018-02-16T22:23:33.321Z,14.57
2018-02-16T22:26:00.982Z,20.67
2018-02-16T22:28:28.662Z,16.87
2018-02-16T22:30:56.277Z,18.23
2018-02-16T22:33:24.262Z,15.57
2018-02-16T22:35:52.052Z,15.47
2018-02-16T22:38:19.745Z,16.50
2018-02-16T22:40:47.367Z,13.83
2018-02-16T22:43:15.020Z,15.83
2018-02-16T22:45:42.640Z,13.40
2018-02-16T22:48:10.550Z,10.87
2018-02-16T22:50:38.161Z,13.73
2018-02-16T22:53:05.809Z,13.57
2018-02-16T22:55:33.432Z,20.95
2018-02-16T22:58:01.091Z,13.97
2018-02-16T23:00:28.765Z,15.40
2018-02-16T23:02:57.065Z,17.40
2018-02-16T23:05:24.678Z,18.05
2018-02-16T23:07:53.022Z,17.03
2018-02-16T23:10:21.131Z,15.82
2018-02-16T23:12:48.787Z,16.52
2018-02-16T23:15:16.396Z,22.67
2018-02-16T23:17:44.233Z,20.93
2018-02-16T23:20:12.469Z,15.50
2018-02-16T23:22:40.137Z,10.90
2018-02-16T23:25:07.800Z,16.48
2018-02-16T23:27:35.448Z,13.63
2018-02-16T23:30:03.089Z,22.30
2018-02-16T23:32:32.071Z,19.90
2018-02-16T23:35:00.480Z,12.82
2018-02-16T23:37:28.805Z,14.25
2018-02-16T23:39:58.298Z,29.02
2018-02-16T23:42:25.860Z,17.33
2018-02-16T23:44:53.510Z,17.33
2018-02-16T23:47:21.133Z,19.40
2018-02-16T23:49:48.870Z,15.50
2018-02-16T23:52:17.020Z,23.73
2018-02-16T23:54:45.433Z,18.40
2018-02-16T23:57:13.046Z,16.83
2018-02-16T23:59:41.104Z,18.27
